Terminal Aerodrome Forecast
Issued by NWS

Home | Current Version | Previous Version | Text Only | Print | Product List | Glossary Off
Versions: 1 2 3 4 5 6 7 8 9 10 11 12 13 14 15 16 17 18 19 20 21 22 23 24 25 26 27 28 29 30 31 32 33

000
FTUS43 KPAH 280520
TAFOWB
TAF
KOWB 280520Z 2806/2906 26008KT P6SM SCT040
     FM280900 13004KT P6SM SCT100 BKN250
     FM281700 15010G15KT P6SM SCT050 BKN100
     FM282200 19012G22KT P6SM VCTS SCT030CB BKN050 PROB30 2822/2824
      3SM -TSRA OVC015CB
     FM290400 18010KT 5SM -SHRA OVC015=

USA.gov is the U.S. government's official web portal to all federal, state and local government web resources and services.